createdAt,value
2023-05-14T00:00:02.108Z,13.43
2023-05-14T00:01:02.128Z,13.50
2023-05-14T00:02:02.182Z,13.61
2023-05-14T00:03:02.254Z,13.69
2023-05-14T00:04:02.297Z,13.80
2023-05-14T00:05:02.245Z,13.91
2023-05-14T00:06:02.259Z,13.99
2023-05-14T00:07:02.262Z,14.04
2023-05-14T00:08:02.323Z,14.10
2023-05-14T00:09:02.328Z,14.09
2023-05-14T00:10:02.319Z,14.12
2023-05-14T00:11:02.310Z,14.17
2023-05-14T00:12:02.367Z,14.18
2023-05-14T00:13:02.435Z,14.17
2023-05-14T00:14:02.474Z,14.19
2023-05-14T00:15:02.523Z,14.15
2023-05-14T00:16:02.564Z,14.04
2023-05-14T00:17:02.538Z,14.03
2023-05-14T00:18:02.584Z,13.90
2023-05-14T00:19:02.659Z,13.80
2023-05-14T00:20:02.654Z,13.68
2023-05-14T00:21:02.672Z,13.77
2023-05-14T00:22:02.718Z,13.88
2023-05-14T00:23:02.738Z,13.97
2023-05-14T00:24:02.726Z,14.00
2023-05-14T00:25:02.781Z,13.99
2023-05-14T00:26:02.805Z,13.95
2023-05-14T00:27:02.866Z,13.97
2023-05-14T00:28:02.897Z,14.00
2023-05-14T00:29:02.943Z,14.00
2023-05-14T00:30:03.013Z,14.02
2023-05-14T00:31:03.041Z,14.05
2023-05-14T00:32:03.045Z,14.10
2023-05-14T00:33:03.129Z,14.12
2023-05-14T00:34:03.186Z,13.96
2023-05-14T00:35:03.256Z,13.77
2023-05-14T00:36:03.302Z,13.64
2023-05-14T00:37:03.365Z,13.59
2023-05-14T00:38:03.379Z,13.47
2023-05-14T00:39:03.449Z,13.34
2023-05-14T00:40:03.485Z,13.27
2023-05-14T00:41:03.485Z,13.34
2023-05-14T00:42:03.508Z,13.29
2023-05-14T00:43:03.527Z,13.24
2023-05-14T00:44:03.543Z,13.31
2023-05-14T00:45:03.569Z,13.31
2023-05-14T00:46:03.604Z,13.40
2023-05-14T00:47:03.679Z,13.42
2023-05-14T00:48:03.744Z,13.44
2023-05-14T00:49:03.652Z,13.58
2023-05-14T00:50:03.739Z,13.67
2023-05-14T00:51:03.727Z,13.73
2023-05-14T00:52:03.734Z,13.76
2023-05-14T00:53:03.784Z,13.69
2023-05-14T00:54:03.824Z,13.72
2023-05-14T00:55:03.854Z,13.65
2023-05-14T00:56:03.868Z,13.64
2023-05-14T00:57:03.913Z,13.65
2023-05-14T00:58:03.934Z,13.66
2023-05-14T00:59:03.976Z,13.74
2023-05-14T01:00:04.006Z,13.81
2023-05-14T01:01:04.118Z,13.85
2023-05-14T01:02:04.049Z,13.71
2023-05-14T01:03:04.182Z,13.72
2023-05-14T01:04:04.151Z,13.76
2023-05-14T01:05:04.153Z,13.84
2023-05-14T01:06:04.169Z,13.80
2023-05-14T01:07:04.219Z,13.81
2023-05-14T01:08:04.208Z,13.91
2023-05-14T01:09:04.278Z,14.01
2023-05-14T01:10:04.300Z,13.97
2023-05-14T01:11:04.298Z,13.94
2023-05-14T01:12:04.279Z,13.87
2023-05-14T01:13:04.303Z,13.85
2023-05-14T01:14:04.389Z,13.65
2023-05-14T01:15:04.417Z,13.69
2023-05-14T01:16:04.467Z,13.77
2023-05-14T01:17:04.520Z,13.79
2023-05-14T01:18:04.564Z,13.82
2023-05-14T01:19:04.564Z,13.87
2023-05-14T01:20:04.575Z,13.83
2023-05-14T01:21:04.580Z,13.86
2023-05-14T01:22:04.602Z,13.86
2023-05-14T01:23:04.624Z,13.87
2023-05-14T01:24:04.638Z,13.78
2023-05-14T01:25:04.626Z,13.88
2023-05-14T01:26:04.661Z,13.88
2023-05-14T01:27:04.665Z,13.91
2023-05-14T01:28:04.670Z,13.98
2023-05-14T01:29:04.796Z,13.87
2023-05-14T01:30:04.832Z,13.81
2023-05-14T01:31:04.866Z,13.72
2023-05-14T01:32:05.056Z,13.67
2023-05-14T01:33:04.979Z,13.61
2023-05-14T01:34:04.958Z,13.62
2023-05-14T01:35:05.018Z,13.68
2023-05-14T01:36:05.006Z,13.74
2023-05-14T01:37:05.029Z,13.71
2023-05-14T01:38:05.058Z,13.60
2023-05-14T01:39:05.087Z,13.41
2023-05-14T01:40:05.099Z,13.37
2023-05-14T01:41:05.146Z,13.42
2023-05-14T01:42:05.139Z,13.42
2023-05-14T01:43:05.260Z,13.50
2023-05-14T01:44:05.218Z,13.44
2023-05-14T01:45:05.200Z,13.47
2023-05-14T01:46:05.275Z,13.53
2023-05-14T01:47:05.221Z,13.56
2023-05-14T01:48:05.311Z,13.47
2023-05-14T01:49:05.248Z,13.45
2023-05-14T01:50:05.292Z,13.51
2023-05-14T01:51:05.298Z,13.56
2023-05-14T01:52:05.337Z,13.57
2023-05-14T01:53:05.356Z,13.68
2023-05-14T01:54:05.356Z,13.80
2023-05-14T01:55:05.384Z,13.70
2023-05-14T01:56:05.399Z,13.82
2023-05-14T01:57:05.463Z,13.84
2023-05-14T01:58:05.502Z,13.73
2023-05-14T01:59:05.554Z,13.68
2023-05-14T02:00:05.587Z,13.74
2023-05-14T02:01:05.626Z,13.70
2023-05-14T02:02:05.577Z,13.67
2023-05-14T02:03:05.704Z,13.67
2023-05-14T02:04:05.689Z,13.74
2023-05-14T02:05:07.040Z,13.73
2023-05-14T02:06:05.710Z,13.82
2023-05-14T02:07:05.748Z,13.80
2023-05-14T02:08:05.780Z,13.67
2023-05-14T02:09:05.843Z,13.58
2023-05-14T02:10:06.416Z,13.57
2023-05-14T02:11:05.895Z,13.50
2023-05-14T02:12:05.888Z,13.40
2023-05-14T02:13:05.913Z,13.33
2023-05-14T02:14:05.938Z,13.18
2023-05-14T02:15:05.990Z,13.27
2023-05-14T02:16:06.057Z,13.34
2023-05-14T02:17:06.042Z,13.29
2023-05-14T02:18:06.090Z,13.28
2023-05-14T02:19:06.134Z,13.14
2023-05-14T02:20:06.096Z,13.19
2023-05-14T02:21:06.118Z,13.06
2023-05-14T02:22:06.077Z,13.10
2023-05-14T02:23:06.146Z,13.09
2023-05-14T02:24:06.196Z,13.04
2023-05-14T02:25:06.232Z,13.02
2023-05-14T02:26:06.356Z,13.17
2023-05-14T02:27:06.330Z,13.29
2023-05-14T02:28:06.305Z,13.32
2023-05-14T02:29:06.320Z,13.23
2023-05-14T02:30:06.321Z,13.22
2023-05-14T02:31:06.394Z,13.29
2023-05-14T02:32:06.416Z,13.26
2023-05-14T02:33:06.489Z,13.31
2023-05-14T02:34:06.429Z,13.26
2023-05-14T02:35:06.421Z,13.13
2023-05-14T02:36:06.433Z,13.14
2023-05-14T02:37:06.462Z,12.99
2023-05-14T02:38:06.481Z,13.14
2023-05-14T02:39:06.544Z,13.27
2023-05-14T02:40:06.569Z,13.17
2023-05-14T02:41:06.558Z,13.09
2023-05-14T02:42:06.566Z,13.22
2023-05-14T02:43:06.616Z,13.32
2023-05-14T02:44:06.614Z,13.35
2023-05-14T02:45:06.635Z,13.44
2023-05-14T02:46:06.632Z,13.54
2023-05-14T02:47:06.705Z,13.64
2023-05-14T02:48:06.763Z,13.70
2023-05-14T02:49:06.706Z,13.68
2023-05-14T02:50:06.736Z,13.61
2023-05-14T02:51:06.774Z,13.54
2023-05-14T02:52:06.784Z,13.55
2023-05-14T02:53:06.776Z,13.61
2023-05-14T02:54:06.782Z,13.60
2023-05-14T02:55:06.840Z,13.52
2023-05-14T02:56:06.910Z,13.50
2023-05-14T02:57:06.896Z,13.54
2023-05-14T02:58:06.894Z,13.53
2023-05-14T02:59:06.918Z,13.50
2023-05-14T03:00:07.006Z,13.54
2023-05-14T03:01:07.129Z,13.49
2023-05-14T03:02:07.050Z,13.45
2023-05-14T03:03:07.090Z,13.45
2023-05-14T03:04:07.066Z,13.54
2023-05-14T03:05:07.079Z,13.58
2023-05-14T03:06:07.071Z,13.64
2023-05-14T03:07:07.090Z,13.63
2023-05-14T03:08:07.132Z,13.66
2023-05-14T03:09:07.161Z,13.62
2023-05-14T03:10:07.221Z,13.53
2023-05-14T03:11:07.268Z,13.60
2023-05-14T03:12:07.274Z,13.66
2023-05-14T03:13:07.332Z,13.65
2023-05-14T03:14:07.381Z,13.65
2023-05-14T03:15:07.487Z,13.68
2023-05-14T03:16:07.452Z,13.64
2023-05-14T03:17:07.576Z,13.59
2023-05-14T03:18:07.524Z,13.71
2023-05-14T03:19:07.599Z,13.70
2023-05-14T03:20:07.537Z,13.63
2023-05-14T03:21:07.595Z,13.59
2023-05-14T03:22:07.613Z,13.56
2023-05-14T03:23:07.638Z,13.61
2023-05-14T03:24:07.663Z,13.64
2023-05-14T03:25:07.697Z,13.68
2023-05-14T03:26:07.722Z,13.61
2023-05-14T03:27:07.738Z,13.52
2023-05-14T03:28:07.806Z,13.59
2023-05-14T03:29:07.837Z,13.68
2023-05-14T03:30:07.837Z,13.71
2023-05-14T03:31:07.913Z,13.80
2023-05-14T03:32:07.911Z,13.83
2023-05-14T03:33:07.906Z,13.86
2023-05-14T03:34:07.912Z,13.85
2023-05-14T03:35:07.955Z,13.77
2023-05-14T03:36:07.977Z,13.64
2023-05-14T03:37:07.985Z,13.57
2023-05-14T03:38:07.971Z,13.54
2023-05-14T03:39:07.985Z,13.59
2023-05-14T03:40:08.049Z,13.52
2023-05-14T03:41:08.092Z,13.49
2023-05-14T03:42:08.117Z,13.47
2023-05-14T03:43:08.138Z,13.50
2023-05-14T03:44:08.118Z,13.53
2023-05-14T03:45:08.194Z,13.49
2023-05-14T03:46:08.207Z,13.49
2023-05-14T03:47:08.267Z,13.55
2023-05-14T03:48:08.386Z,13.54
2023-05-14T03:49:08.338Z,13.49
2023-05-14T03:50:08.328Z,13.51
2023-05-14T03:51:08.355Z,13.52
2023-05-14T03:52:08.347Z,13.49
2023-05-14T03:53:08.353Z,13.43
2023-05-14T03:54:08.382Z,13.36
2023-05-14T03:55:08.385Z,13.35
2023-05-14T03:56:08.407Z,13.38
2023-05-14T03:57:08.420Z,13.27
2023-05-14T03:58:08.436Z,13.19
2023-05-14T03:59:08.408Z,13.16
2023-05-14T04:00:08.472Z,13.19
2023-05-14T04:01:08.447Z,13.22
2023-05-14T04:02:08.453Z,13.14
2023-05-14T04:03:08.540Z,13.04
2023-05-14T04:04:08.588Z,13.00
2023-05-14T04:05:08.513Z,12.92
2023-05-14T04:06:08.546Z,12.93
2023-05-14T04:07:08.547Z,12.99
2023-05-14T04:08:08.557Z,12.91
2023-05-14T04:09:08.597Z,12.99
2023-05-14T04:10:08.616Z,12.97
2023-05-14T04:11:08.632Z,13.01
2023-05-14T04:12:08.675Z,12.87
2023-05-14T04:13:08.704Z,12.81
2023-05-14T04:14:08.730Z,12.82
2023-05-14T04:15:08.758Z,12.94
2023-05-14T04:16:08.782Z,13.12
2023-05-14T04:17:08.783Z,13.19
2023-05-14T04:18:08.850Z,13.23
2023-05-14T04:19:08.847Z,13.30
2023-05-14T04:20:08.846Z,13.15
2023-05-14T04:21:08.908Z,13.16
2023-05-14T04:22:08.904Z,13.21
2023-05-14T04:23:08.919Z,13.19
2023-05-14T04:24:08.958Z,13.19
2023-05-14T04:25:08.970Z,13.19
2023-05-14T04:26:09.006Z,13.20
2023-05-14T04:27:09.038Z,13.20
2023-05-14T04:28:09.001Z,13.05
2023-05-14T04:29:09.029Z,13.05
2023-05-14T04:30:09.055Z,13.14
2023-05-14T04:31:09.084Z,13.20
2023-05-14T04:32:09.107Z,13.20
2023-05-14T04:33:09.123Z,13.24
2023-05-14T04:34:09.089Z,13.23
2023-05-14T04:35:09.125Z,13.32
2023-05-14T04:36:09.426Z,13.39
2023-05-14T04:37:09.120Z,13.42
2023-05-14T04:38:09.136Z,13.43
2023-05-14T04:39:09.154Z,13.45
2023-05-14T04:40:09.158Z,13.42
2023-05-14T04:41:09.164Z,13.44
2023-05-14T04:42:09.148Z,13.50
2023-05-14T04:43:09.200Z,13.57
2023-05-14T04:44:09.315Z,13.55
2023-05-14T04:45:09.371Z,13.60
2023-05-14T04:46:09.500Z,13.65
2023-05-14T04:47:09.401Z,13.60
2023-05-14T04:48:09.537Z,13.61
2023-05-14T04:49:09.456Z,13.57
2023-05-14T04:50:09.481Z,13.56
2023-05-14T04:51:09.471Z,13.53
2023-05-14T04:52:09.527Z,13.50
2023-05-14T04:53:09.527Z,13.51
2023-05-14T04:54:09.591Z,13.45
2023-05-14T04:55:09.582Z,13.41
2023-05-14T04:56:09.610Z,13.48
2023-05-14T04:57:09.625Z,13.53
2023-05-14T04:58:09.653Z,13.55
2023-05-14T04:59:09.667Z,13.45
2023-05-14T05:00:09.709Z,13.43
2023-05-14T05:01:09.755Z,13.54
2023-05-14T05:02:09.767Z,13.63
2023-05-14T05:03:09.892Z,13.68
2023-05-14T05:04:09.894Z,13.71
2023-05-14T05:05:09.898Z,13.79
2023-05-14T05:06:09.949Z,13.84
2023-05-14T05:07:09.999Z,13.80
2023-05-14T05:08:10.045Z,13.76
2023-05-14T05:09:10.074Z,13.74
2023-05-14T05:10:10.090Z,13.71
2023-05-14T05:11:10.131Z,13.71
2023-05-14T05:12:10.161Z,13.69
2023-05-14T05:13:10.164Z,13.82
2023-05-14T05:14:10.202Z,13.85
2023-05-14T05:15:10.249Z,13.79
2023-05-14T05:16:10.326Z,13.75
2023-05-14T05:17:10.309Z,13.74
2023-05-14T05:18:10.355Z,13.71
2023-05-14T05:19:10.440Z,13.73
2023-05-14T05:20:10.391Z,13.82
2023-05-14T05:21:10.387Z,13.94
2023-05-14T05:22:10.512Z,14.02
2023-05-14T05:23:10.464Z,14.07
2023-05-14T05:24:10.492Z,14.10
2023-05-14T05:25:10.568Z,14.16
2023-05-14T05:26:10.606Z,14.24
2023-05-14T05:27:10.664Z,14.23
2023-05-14T05:28:10.748Z,14.30
2023-05-14T05:29:10.785Z,14.34
2023-05-14T05:30:10.859Z,14.37
2023-05-14T05:31:10.944Z,14.36
2023-05-14T05:32:10.890Z,14.24
2023-05-14T05:33:10.957Z,14.19
2023-05-14T05:34:10.945Z,14.07
2023-05-14T05:35:10.971Z,14.00
2023-05-14T05:36:11.039Z,14.09
2023-05-14T05:37:11.089Z,14.18
2023-05-14T05:38:11.132Z,14.18
2023-05-14T05:39:11.130Z,14.24
2023-05-14T05:40:11.251Z,14.15
2023-05-14T05:41:11.272Z,14.14
2023-05-14T05:42:11.279Z,14.09
2023-05-14T05:43:11.271Z,14.04
2023-05-14T05:44:11.293Z,14.00
2023-05-14T05:45:11.330Z,14.01
2023-05-14T05:46:11.469Z,14.03
2023-05-14T05:47:11.375Z,14.00
2023-05-14T05:48:11.378Z,14.10
2023-05-14T05:49:11.377Z,14.16
2023-05-14T05:50:11.472Z,14.15
2023-05-14T05:51:11.452Z,14.09
2023-05-14T05:52:11.503Z,14.09
2023-05-14T05:53:11.535Z,14.13
2023-05-14T05:54:11.565Z,14.18
2023-05-14T05:55:11.628Z,14.18
2023-05-14T05:56:11.628Z,14.13
2023-05-14T05:57:11.664Z,14.14
2023-05-14T05:58:11.686Z,14.05
2023-05-14T05:59:11.725Z,14.07
2023-05-14T06:00:11.798Z,14.18
2023-05-14T06:01:11.887Z,14.28
2023-05-14T06:02:11.925Z,14.37
2023-05-14T06:03:11.963Z,14.40
2023-05-14T06:04:11.934Z,14.30
2023-05-14T06:05:12.031Z,14.17
2023-05-14T06:06:12.001Z,14.09
2023-05-14T06:07:12.009Z,14.08
2023-05-14T06:08:12.037Z,14.15
2023-05-14T06:09:12.065Z,14.28
2023-05-14T06:10:13.005Z,14.34
2023-05-14T06:11:12.484Z,14.32
2023-05-14T06:12:12.158Z,14.46
2023-05-14T06:13:12.221Z,14.48
2023-05-14T06:14:12.267Z,14.59
2023-05-14T06:15:12.267Z,14.72
2023-05-14T06:16:12.313Z,14.74
2023-05-14T06:17:12.287Z,14.84
2023-05-14T06:18:12.296Z,14.88
2023-05-14T06:19:12.429Z,14.95
2023-05-14T06:20:12.367Z,14.97
2023-05-14T06:21:12.389Z,15.02
2023-05-14T06:22:12.410Z,14.96
2023-05-14T06:23:12.502Z,15.01
2023-05-14T06:24:12.447Z,15.02
2023-05-14T06:25:12.496Z,15.03
2023-05-14T06:26:12.517Z,15.11
2023-05-14T06:27:12.531Z,15.17
2023-05-14T06:28:12.572Z,15.22
2023-05-14T06:29:12.617Z,15.27
2023-05-14T06:30:12.645Z,15.26
2023-05-14T06:31:12.626Z,15.32
2023-05-14T06:32:12.799Z,15.32
2023-05-14T06:33:12.692Z,15.20
2023-05-14T06:34:12.761Z,15.24
2023-05-14T06:35:12.787Z,15.29
2023-05-14T06:36:12.813Z,15.30
2023-05-14T06:37:12.837Z,15.37
2023-05-14T06:38:12.867Z,15.46
2023-05-14T06:39:12.886Z,15.51
2023-05-14T06:40:12.959Z,15.58
2023-05-14T06:41:12.997Z,15.54
2023-05-14T06:42:12.982Z,15.50
2023-05-14T06:43:13.053Z,15.53
2023-05-14T06:44:13.061Z,15.56
2023-05-14T06:45:13.088Z,15.57
2023-05-14T06:46:13.127Z,15.60
2023-05-14T06:47:13.166Z,15.63
2023-05-14T06:48:13.266Z,15.66
2023-05-14T06:49:13.365Z,15.52
2023-05-14T06:50:13.284Z,15.56
2023-05-14T06:51:13.379Z,15.60
2023-05-14T06:52:13.331Z,15.67
2023-05-14T06:53:13.384Z,15.74
2023-05-14T06:54:13.414Z,15.76
2023-05-14T06:55:13.410Z,15.80
2023-05-14T06:56:13.445Z,15.84
2023-05-14T06:57:13.449Z,15.86
2023-05-14T06:58:13.484Z,15.95
2023-05-14T06:59:13.513Z,15.96
2023-05-14T07:00:13.518Z,15.99
2023-05-14T07:01:13.593Z,16.02
2023-05-14T07:02:13.549Z,16.06
2023-05-14T07:03:13.565Z,16.14
2023-05-14T07:04:13.635Z,16.19
2023-05-14T07:05:13.672Z,16.17
2023-05-14T07:06:13.773Z,16.17
2023-05-14T07:07:13.732Z,16.21
2023-05-14T07:08:13.747Z,16.17
2023-05-14T07:09:13.781Z,15.98
2023-05-14T07:10:13.857Z,15.96
2023-05-14T07:11:13.866Z,16.02
2023-05-14T07:12:13.914Z,16.08
2023-05-14T07:13:13.967Z,16.17
2023-05-14T07:14:13.985Z,16.30
2023-05-14T07:15:14.051Z,16.48
2023-05-14T07:16:14.089Z,16.43
2023-05-14T07:17:14.186Z,16.39
2023-05-14T07:18:14.182Z,16.46
2023-05-14T07:19:14.300Z,16.47
2023-05-14T07:20:14.212Z,16.34
2023-05-14T07:21:14.255Z,16.45
2023-05-14T07:22:14.260Z,16.55
2023-05-14T07:23:14.299Z,16.64
2023-05-14T07:24:14.265Z,16.63
2023-05-14T07:25:14.296Z,16.72
2023-05-14T07:26:14.350Z,16.73
2023-05-14T07:27:14.413Z,16.87
2023-05-14T07:28:14.989Z,17.02
2023-05-14T07:29:14.432Z,17.10
2023-05-14T07:30:14.441Z,17.15
2023-05-14T07:31:14.467Z,17.19
2023-05-14T07:32:15.669Z,17.27
2023-05-14T07:33:14.509Z,17.36
2023-05-14T07:34:14.515Z,17.41
2023-05-14T07:35:14.520Z,17.48
2023-05-14T07:36:14.548Z,17.42
2023-05-14T07:37:14.529Z,17.25
2023-05-14T07:38:14.561Z,17.31
2023-05-14T07:39:14.599Z,17.25
2023-05-14T07:40:14.620Z,17.31
2023-05-14T07:41:14.669Z,17.38
2023-05-14T07:42:24.572Z,17.49
2023-05-14T07:43:15.710Z,17.52
2023-05-14T07:44:14.692Z,17.65
2023-05-14T07:45:14.677Z,17.68
2023-05-14T07:46:14.668Z,17.43
2023-05-14T07:47:14.690Z,17.27
2023-05-14T07:48:14.803Z,17.08
2023-05-14T07:49:14.656Z,17.25
2023-05-14T07:50:14.645Z,17.40
2023-05-14T07:51:14.646Z,17.34
2023-05-14T07:52:14.626Z,17.35
2023-05-14T07:53:14.630Z,17.27
2023-05-14T07:54:14.613Z,17.33
2023-05-14T07:55:14.603Z,17.42
2023-05-14T07:56:14.649Z,17.52
2023-05-14T07:57:14.706Z,17.42
2023-05-14T07:58:14.711Z,17.46
2023-05-14T07:59:14.766Z,17.39
2023-05-14T08:00:14.827Z,17.51
2023-05-14T08:01:14.874Z,17.60
2023-05-14T08:02:14.949Z,17.69
2023-05-14T08:03:15.139Z,17.81
2023-05-14T08:04:15.027Z,17.79
2023-05-14T08:05:15.061Z,17.53
2023-05-14T08:06:15.108Z,17.50
2023-05-14T08:07:15.187Z,17.48
2023-05-14T08:08:15.186Z,17.61
2023-05-14T08:09:15.255Z,17.66
2023-05-14T08:10:15.329Z,17.72
2023-05-14T08:11:15.388Z,17.88
2023-05-14T08:12:15.382Z,18.07
2023-05-14T08:13:15.473Z,18.23
2023-05-14T08:14:15.510Z,18.29
2023-05-14T08:15:15.595Z,18.13
2023-05-14T08:16:15.647Z,18.18
2023-05-14T08:17:15.716Z,18.20
2023-05-14T08:18:15.711Z,18.18
2023-05-14T08:19:15.804Z,18.21
2023-05-14T08:20:15.761Z,18.26
2023-05-14T08:21:15.747Z,18.32
2023-05-14T08:22:15.755Z,18.59
2023-05-14T08:23:15.785Z,18.69
2023-05-14T08:24:15.823Z,18.79
2023-05-14T08:25:15.872Z,18.73
2023-05-14T08:26:15.863Z,18.50
2023-05-14T08:27:15.906Z,18.22
2023-05-14T08:28:15.922Z,18.38
2023-05-14T08:29:16.700Z,18.47
2023-05-14T08:30:16.009Z,18.38
2023-05-14T08:31:16.067Z,18.42
2023-05-14T08:32:23.258Z,18.71
2023-05-14T08:33:17.062Z,18.69
2023-05-14T08:34:16.020Z,18.79
2023-05-14T08:35:16.025Z,18.87
2023-05-14T08:36:16.015Z,19.02
2023-05-14T08:37:15.987Z,19.21
2023-05-14T08:38:15.989Z,19.17
2023-05-14T08:39:15.988Z,19.31
2023-05-14T08:40:15.960Z,19.19
2023-05-14T08:41:15.970Z,19.33
2023-05-14T08:42:15.969Z,19.32
2023-05-14T08:43:15.953Z,19.47
2023-05-14T08:44:15.960Z,19.64
2023-05-14T08:45:15.967Z,19.53
2023-05-14T08:46:15.996Z,19.64
2023-05-14T08:47:16.053Z,19.78
2023-05-14T08:48:16.160Z,19.95
2023-05-14T08:49:16.137Z,20.12
2023-05-14T08:50:16.164Z,20.31
2023-05-14T08:51:16.185Z,20.12
2023-05-14T08:52:16.233Z,20.15
2023-05-14T08:53:16.241Z,20.11
2023-05-14T08:54:16.284Z,20.02
2023-05-14T08:55:16.349Z,20.24
2023-05-14T08:56:16.404Z,20.45
2023-05-14T08:57:16.471Z,20.67
2023-05-14T08:58:16.483Z,20.92
2023-05-14T08:59:16.532Z,21.03
2023-05-14T09:00:16.573Z,21.15
2023-05-14T09:01:16.648Z,21.34
2023-05-14T09:02:16.639Z,21.52
2023-05-14T09:03:16.735Z,21.65
2023-05-14T09:04:16.736Z,21.63
2023-05-14T09:05:16.717Z,21.83
2023-05-14T09:06:16.751Z,21.79
2023-05-14T09:07:16.820Z,21.84
2023-05-14T09:08:16.851Z,21.71
2023-05-14T09:09:16.876Z,21.30
2023-05-14T09:10:17.516Z,21.03
2023-05-14T09:11:16.967Z,20.59
2023-05-14T09:12:16.996Z,20.72
2023-05-14T09:13:17.020Z,20.87
2023-05-14T09:14:17.078Z,20.87
2023-05-14T09:15:17.120Z,20.87
2023-05-14T09:16:17.211Z,20.86
2023-05-14T09:17:17.185Z,20.98
2023-05-14T09:18:17.186Z,21.26
2023-05-14T09:19:17.265Z,21.44
2023-05-14T09:20:17.255Z,21.56
2023-05-14T09:21:17.292Z,21.68
2023-05-14T09:22:17.326Z,21.61
2023-05-14T09:23:17.347Z,21.38
2023-05-14T09:24:17.321Z,21.49
2023-05-14T09:25:17.320Z,21.52
2023-05-14T09:26:17.360Z,21.70
2023-05-14T09:27:17.421Z,21.67
2023-05-14T09:28:17.532Z,21.69
2023-05-14T09:29:17.519Z,21.68
2023-05-14T09:30:17.544Z,21.69
2023-05-14T09:31:17.609Z,21.73
2023-05-14T09:32:17.612Z,21.79
2023-05-14T09:33:17.639Z,21.82
2023-05-14T09:34:17.705Z,21.84
2023-05-14T09:35:18.057Z,21.51
2023-05-14T09:36:17.859Z,21.40
2023-05-14T09:37:17.855Z,21.54
2023-05-14T09:38:17.878Z,21.68
2023-05-14T09:39:17.902Z,21.78
2023-05-14T09:40:17.933Z,21.99
2023-05-14T09:41:17.959Z,22.11
2023-05-14T09:42:18.002Z,22.21
2023-05-14T09:43:17.997Z,22.23
2023-05-14T09:44:18.035Z,22.47
2023-05-14T09:45:18.085Z,22.45
2023-05-14T09:46:18.067Z,22.57
2023-05-14T09:47:18.113Z,22.41
2023-05-14T09:48:18.142Z,22.36
2023-05-14T09:49:18.133Z,22.24
2023-05-14T09:50:18.190Z,22.18
2023-05-14T09:51:18.196Z,22.25
2023-05-14T09:52:18.249Z,22.36
2023-05-14T09:53:18.241Z,22.38
2023-05-14T09:54:18.299Z,22.43
2023-05-14T09:55:18.373Z,22.29
2023-05-14T09:56:18.370Z,21.82
2023-05-14T09:57:18.389Z,21.40
2023-05-14T09:58:18.405Z,21.53
2023-05-14T09:59:18.458Z,21.02
2023-05-14T10:00:18.477Z,20.73
2023-05-14T10:01:18.541Z,21.10
2023-05-14T10:02:18.557Z,21.17
2023-05-14T10:03:20.089Z,21.39
2023-05-14T10:04:18.680Z,21.68
2023-05-14T10:05:18.698Z,21.83
2023-05-14T10:06:18.749Z,21.83
2023-05-14T10:07:18.780Z,21.80
2023-05-14T10:08:18.773Z,21.85
2023-05-14T10:09:18.864Z,21.96
2023-05-14T10:10:18.885Z,21.94
2023-05-14T10:11:18.925Z,21.88
2023-05-14T10:12:18.948Z,22.09
2023-05-14T10:13:18.948Z,22.13
2023-05-14T10:14:18.981Z,21.97
2023-05-14T10:15:18.985Z,21.61
2023-05-14T10:16:19.071Z,21.51
2023-05-14T10:17:19.179Z,21.45
2023-05-14T10:18:19.256Z,21.67
2023-05-14T10:19:19.200Z,21.77
2023-05-14T10:20:19.237Z,21.85
2023-05-14T10:21:19.232Z,21.90
2023-05-14T10:22:19.241Z,21.93
2023-05-14T10:23:19.284Z,21.96
2023-05-14T10:24:19.339Z,21.96
2023-05-14T10:25:19.410Z,22.01
2023-05-14T10:26:20.148Z,22.02
2023-05-14T10:27:19.468Z,22.05
2023-05-14T10:28:19.464Z,22.14
2023-05-14T10:29:19.538Z,22.08
2023-05-14T10:30:19.534Z,22.13
2023-05-14T10:31:19.590Z,22.19
2023-05-14T10:32:19.642Z,22.25
2023-05-14T10:33:19.639Z,22.30
2023-05-14T10:34:19.702Z,22.30
2023-05-14T10:35:19.709Z,22.19
2023-05-14T10:36:19.729Z,22.20
2023-05-14T10:37:20.553Z,22.13
2023-05-14T10:38:19.770Z,22.09
2023-05-14T10:39:19.827Z,21.97
2023-05-14T10:40:19.861Z,21.95
2023-05-14T10:41:19.863Z,22.06
2023-05-14T10:42:19.920Z,22.08
2023-05-14T10:43:19.936Z,22.14
2023-05-14T10:44:19.952Z,22.09
2023-05-14T10:45:19.968Z,21.94
2023-05-14T10:46:20.067Z,22.03
2023-05-14T10:47:20.058Z,22.06
2023-05-14T10:48:20.108Z,22.05
2023-05-14T10:49:28.246Z,21.97
2023-05-14T10:50:21.092Z,21.90
2023-05-14T10:51:20.079Z,21.94
2023-05-14T10:52:20.069Z,21.91
2023-05-14T10:53:20.095Z,22.03
2023-05-14T10:54:20.068Z,22.13
2023-05-14T10:55:20.041Z,22.30
2023-05-14T10:56:20.059Z,22.38
2023-05-14T10:57:20.114Z,22.35
2023-05-14T10:58:20.043Z,22.45
2023-05-14T10:59:20.063Z,22.34
2023-05-14T11:00:20.034Z,22.41
2023-05-14T11:01:20.052Z,22.26
2023-05-14T11:02:20.125Z,22.32
2023-05-14T11:03:20.031Z,22.50
2023-05-14T11:04:20.025Z,22.55
2023-05-14T11:05:19.997Z,22.71
2023-05-14T11:06:20.006Z,22.74
2023-05-14T11:07:20.027Z,22.74
2023-05-14T11:08:20.043Z,22.84
2023-05-14T11:09:20.070Z,22.73
2023-05-14T11:10:20.153Z,22.39
2023-05-14T11:11:20.096Z,22.47
2023-05-14T11:12:20.128Z,22.28
2023-05-14T11:13:20.148Z,22.29
2023-05-14T11:14:20.205Z,22.17
2023-05-14T11:15:20.236Z,22.16
2023-05-14T11:16:23.740Z,22.27
2023-05-14T11:17:20.297Z,22.35
2023-05-14T11:18:20.240Z,22.25
2023-05-14T11:19:20.261Z,22.18
2023-05-14T11:20:20.220Z,22.10
2023-05-14T11:21:20.301Z,22.14
2023-05-14T11:22:20.219Z,22.01
2023-05-14T11:23:20.208Z,21.99
2023-05-14T11:24:20.197Z,22.02
2023-05-14T11:25:20.224Z,21.97
2023-05-14T11:26:21.812Z,21.91
2023-05-14T11:27:20.185Z,21.92
2023-05-14T11:28:20.178Z,21.88
2023-05-14T11:29:20.167Z,21.86
2023-05-14T11:30:20.219Z,21.86
2023-05-14T11:31:20.200Z,21.84
2023-05-14T11:32:20.147Z,21.82
2023-05-14T11:33:20.188Z,21.70
2023-05-14T11:34:20.167Z,21.53
2023-05-14T11:35:20.142Z,21.39
2023-05-14T11:36:20.142Z,21.12
2023-05-14T11:37:20.135Z,21.07
2023-05-14T11:38:20.137Z,21.04
2023-05-14T11:39:20.117Z,20.84
2023-05-14T11:40:20.082Z,20.79
2023-05-14T11:41:20.091Z,20.83
2023-05-14T11:42:20.094Z,20.65
2023-05-14T11:43:20.089Z,20.59
2023-05-14T11:44:20.058Z,20.49
2023-05-14T11:45:20.058Z,20.53
2023-05-14T11:46:20.200Z,20.42
2023-05-14T11:47:20.068Z,20.26
2023-05-14T11:48:20.157Z,20.14
2023-05-14T11:49:20.195Z,20.02
2023-05-14T11:50:20.217Z,19.99
2023-05-14T11:51:20.303Z,20.04
2023-05-14T11:52:20.296Z,19.86
2023-05-14T11:53:20.302Z,19.84
2023-05-14T11:54:20.298Z,19.81
2023-05-14T11:55:20.311Z,19.82
2023-05-14T11:56:20.322Z,19.78
2023-05-14T11:57:20.386Z,19.76
2023-05-14T11:58:20.406Z,19.75
2023-05-14T11:59:20.444Z,19.66
2023-05-14T12:00:20.544Z,19.57
2023-05-14T12:01:20.467Z,19.47
2023-05-14T12:02:20.501Z,19.43
2023-05-14T12:03:20.713Z,19.34
2023-05-14T12:04:20.564Z,19.29
2023-05-14T12:05:20.590Z,19.35
2023-05-14T12:06:20.581Z,19.28
2023-05-14T12:07:20.590Z,19.07
2023-05-14T12:08:20.600Z,19.13
2023-05-14T12:09:20.616Z,19.26
2023-05-14T12:10:20.666Z,19.25
2023-05-14T12:11:20.769Z,19.18
2023-05-14T12:12:20.752Z,19.26
2023-05-14T12:13:20.789Z,19.33
2023-05-14T12:14:20.839Z,19.43
2023-05-14T12:15:20.839Z,19.53
2023-05-14T12:16:20.885Z,19.62
2023-05-14T12:17:20.988Z,19.75
2023-05-14T12:18:24.564Z,19.88
2023-05-14T12:19:20.982Z,19.87
2023-05-14T12:20:20.956Z,19.92
2023-05-14T12:21:20.889Z,19.98
2023-05-14T12:22:20.917Z,20.01
2023-05-14T12:23:20.891Z,20.12
2023-05-14T12:24:20.893Z,20.16
2023-05-14T12:25:20.883Z,20.18
2023-05-14T12:26:20.870Z,20.27
2023-05-14T12:27:20.860Z,20.26
2023-05-14T12:28:20.864Z,20.12
2023-05-14T12:29:20.900Z,20.06
2023-05-14T12:30:22.142Z,19.80
2023-05-14T12:31:20.858Z,19.91
2023-05-14T12:32:20.823Z,19.95
2023-05-14T12:33:20.826Z,20.02
2023-05-14T12:34:20.817Z,19.94
2023-05-14T12:35:20.814Z,19.86
2023-05-14T12:36:22.426Z,19.87
2023-05-14T12:37:20.799Z,19.80
2023-05-14T12:38:20.792Z,19.73
2023-05-14T12:39:20.819Z,19.88
2023-05-14T12:40:20.782Z,19.99
2023-05-14T12:41:20.779Z,20.10
2023-05-14T12:42:20.765Z,20.24
2023-05-14T12:43:20.789Z,20.30
2023-05-14T12:44:20.757Z,20.23
2023-05-14T12:45:20.766Z,20.27
2023-05-14T12:46:20.779Z,20.26
2023-05-14T12:47:20.992Z,20.25
2023-05-14T12:48:20.764Z,20.20
2023-05-14T12:49:20.727Z,20.10
2023-05-14T12:50:20.739Z,20.10
2023-05-14T12:51:20.727Z,20.01
2023-05-14T12:52:36.100Z,20.01